createdAt,value
2023-02-23T00:01:55.846Z,34.47
2023-02-23T00:04:24.313Z,38.03
2023-02-23T00:06:52.303Z,37.53
2023-02-23T00:09:25.852Z,36.92
2023-02-23T00:11:55.466Z,37.33
2023-02-23T00:14:28.481Z,37.15
2023-02-23T00:16:57.002Z,37.05
2023-02-23T00:19:25.327Z,37.90
2023-02-23T00:21:53.998Z,37.67
2023-02-23T00:24:21.948Z,37.97
2023-02-23T00:26:51.825Z,36.15
2023-02-23T00:29:21.602Z,38.05
2023-02-23T00:31:50.830Z,38.25
2023-02-23T00:34:23.931Z,39.05
2023-02-23T00:36:54.694Z,36.58
2023-02-23T00:39:24.756Z,36.38
2023-02-23T00:41:55.666Z,37.33
2023-02-23T00:44:24.219Z,35.65
2023-02-23T00:46:52.232Z,36.53
2023-02-23T00:49:21.962Z,39.83
2023-02-23T00:51:49.549Z,37.58
2023-02-23T00:54:18.737Z,39.25
2023-02-23T00:56:46.982Z,39.08
2023-02-23T00:59:14.846Z,39.75
2023-02-23T01:01:45.278Z,38.00
2023-02-23T01:04:13.205Z,39.30
2023-02-23T01:06:41.614Z,40.05
2023-02-23T01:09:28.385Z,37.53
2023-02-23T01:11:56.754Z,38.22
2023-02-23T01:14:24.084Z,40.90
2023-02-23T01:16:51.943Z,39.13
2023-02-23T01:19:19.644Z,40.08
2023-02-23T01:21:50.451Z,39.00
2023-02-23T01:24:18.142Z,41.08
2023-02-23T01:26:45.878Z,40.70
2023-02-23T01:29:16.100Z,39.13
2023-02-23T01:31:47.578Z,40.15
2023-02-23T01:34:18.562Z,41.65
2023-02-23T01:36:45.879Z,40.72
2023-02-23T01:39:19.386Z,42.08
2023-02-23T01:41:46.859Z,39.70
2023-02-23T01:44:15.261Z,39.28
2023-02-23T01:46:45.682Z,38.80
2023-02-23T01:49:17.680Z,39.80
2023-02-23T01:51:55.828Z,36.08
2023-02-23T01:54:30.482Z,38.00
2023-02-23T01:57:01.398Z,37.17
2023-02-23T01:59:37.594Z,40.25
2023-02-23T02:02:05.854Z,40.03
2023-02-23T02:04:44.354Z,38.35
2023-02-23T02:07:35.395Z,38.63
2023-02-23T02:10:12.111Z,36.03
2023-02-23T02:12:52.018Z,34.85
2023-02-23T02:15:22.696Z,36.42
2023-02-23T02:18:03.449Z,40.63
2023-02-23T02:20:43.739Z,39.00
2023-02-23T02:23:19.936Z,37.25
2023-02-23T02:25:47.600Z,40.10
2023-02-23T02:28:37.284Z,40.70
2023-02-23T02:31:30.303Z,40.08
2023-02-23T02:34:26.022Z,41.42
2023-02-23T02:37:10.622Z,40.53
2023-02-23T02:39:53.902Z,41.05
2023-02-23T02:42:37.550Z,37.97
2023-02-23T02:45:08.591Z,38.90
2023-02-23T02:47:50.600Z,38.70
2023-02-23T02:50:31.790Z,40.03
2023-02-23T02:53:15.345Z,38.58
2023-02-23T02:55:44.195Z,38.13
2023-02-23T02:58:13.572Z,42.00
2023-02-23T03:01:02.323Z,39.95
2023-02-23T03:03:52.811Z,39.63
2023-02-23T03:06:43.807Z,38.10
2023-02-23T03:09:48.652Z,40.60
2023-02-23T03:13:20.790Z,38.50
2023-02-23T03:16:13.092Z,39.30
2023-02-23T03:19:19.436Z,38.53
2023-02-23T03:22:28.608Z,38.30
2023-02-23T03:25:21.018Z,41.08
2023-02-23T03:28:27.139Z,40.28
2023-02-23T03:31:42.486Z,39.40
2023-02-23T03:34:34.623Z,38.53
2023-02-23T03:37:41.069Z,37.53
2023-02-23T03:40:37.199Z,38.03
2023-02-23T03:43:30.064Z,42.13
2023-02-23T03:46:19.186Z,40.63
2023-02-23T03:49:07.020Z,41.33
2023-02-23T03:51:55.727Z,40.33
2023-02-23T03:54:54.360Z,38.85
2023-02-23T03:57:45.864Z,40.65
2023-02-23T04:00:38.514Z,41.22
2023-02-23T04:03:27.034Z,39.35
2023-02-23T04:06:16.571Z,39.80
2023-02-23T04:09:03.553Z,40.10
2023-02-23T04:12:01.744Z,40.13
2023-02-23T04:15:03.973Z,39.85
2023-02-23T04:17:31.659Z,38.90
2023-02-23T04:19:58.697Z,42.78
2023-02-23T04:22:26.229Z,41.97
2023-02-23T04:24:53.374Z,40.90
2023-02-23T04:27:20.849Z,39.00
2023-02-23T04:29:48.120Z,40.20
2023-02-23T04:32:18.470Z,39.75
2023-02-23T04:34:47.410Z,39.83
2023-02-23T04:37:14.464Z,38.83
2023-02-23T04:39:43.160Z,37.35
2023-02-23T04:42:10.281Z,38.97
2023-02-23T04:44:37.371Z,37.15
2023-02-23T04:47:04.402Z,41.28
2023-02-23T04:49:31.350Z,47.75
2023-02-23T04:51:58.319Z,48.63
2023-02-23T04:54:25.775Z,47.35
2023-02-23T04:56:54.565Z,46.00
2023-02-23T04:59:21.606Z,47.70
2023-02-23T05:01:48.994Z,47.90
2023-02-23T05:04:16.074Z,48.90
2023-02-23T05:06:43.129Z,50.83
2023-02-23T05:09:10.619Z,49.55
2023-02-23T05:11:38.451Z,47.05
2023-02-23T05:14:06.764Z,48.55
2023-02-23T05:16:34.295Z,45.95
2023-02-23T05:19:01.694Z,43.83
2023-02-23T05:21:31.650Z,41.70
2023-02-23T05:23:58.757Z,45.03
2023-02-23T05:26:25.912Z,44.10
2023-02-23T05:28:53.034Z,41.28
2023-02-23T05:31:20.812Z,41.08
2023-02-23T05:33:48.144Z,43.97
2023-02-23T05:36:17.944Z,42.10
2023-02-23T05:38:46.089Z,43.08
2023-02-23T05:41:23.754Z,44.47
2023-02-23T05:43:53.678Z,43.15
2023-02-23T05:46:27.041Z,43.47
2023-02-23T05:49:00.168Z,43.35
2023-02-23T05:51:28.918Z,48.03
2023-02-23T05:53:55.843Z,48.17
2023-02-23T05:56:23.248Z,49.05
2023-02-23T05:58:52.340Z,45.45
2023-02-23T06:01:20.397Z,47.35
2023-02-23T06:03:48.417Z,48.13
2023-02-23T06:06:16.543Z,46.75
2023-02-23T06:08:44.056Z,47.25
2023-02-23T06:11:12.320Z,48.28
2023-02-23T06:13:39.327Z,47.45
2023-02-23T06:16:08.792Z,48.58
2023-02-23T06:18:37.542Z,49.15
2023-02-23T06:21:05.272Z,47.70
2023-02-23T06:23:33.500Z,46.88
2023-02-23T06:26:00.884Z,48.38
2023-02-23T06:28:29.348Z,45.75
2023-02-23T06:30:58.212Z,47.10
2023-02-23T06:33:26.092Z,43.50
2023-02-23T06:35:55.745Z,41.25
2023-02-23T06:38:23.986Z,41.45
2023-02-23T06:40:51.433Z,41.17
2023-02-23T06:43:18.353Z,39.75
2023-02-23T06:45:47.099Z,39.97
2023-02-23T06:48:14.143Z,37.95
2023-02-23T06:50:41.857Z,40.33
2023-02-23T06:53:08.713Z,37.95
2023-02-23T06:55:35.968Z,40.42
2023-02-23T06:58:03.406Z,39.00
2023-02-23T07:00:30.788Z,38.05
2023-02-23T07:02:58.098Z,37.53
2023-02-23T07:05:25.406Z,37.38
2023-02-23T07:07:52.393Z,38.28
2023-02-23T07:10:19.704Z,38.45
2023-02-23T07:12:46.989Z,38.88
2023-02-23T07:15:18.596Z,39.65
2023-02-23T07:17:48.813Z,37.75
2023-02-23T07:20:16.365Z,38.42
2023-02-23T07:22:43.602Z,38.38
2023-02-23T07:25:11.044Z,38.17
2023-02-23T07:27:38.460Z,37.60
2023-02-23T07:30:06.221Z,37.70
2023-02-23T07:32:33.221Z,37.33
2023-02-23T07:35:00.378Z,39.30
2023-02-23T07:37:27.254Z,37.63
2023-02-23T07:39:54.358Z,37.20
2023-02-23T07:42:21.325Z,39.47
2023-02-23T07:44:48.233Z,36.85
2023-02-23T07:47:15.778Z,38.20
2023-02-23T07:49:43.805Z,36.08
2023-02-23T07:52:11.208Z,36.60
2023-02-23T07:54:38.200Z,37.58
2023-02-23T07:57:05.140Z,35.63
2023-02-23T07:59:32.991Z,35.03
2023-02-23T08:02:01.353Z,33.42
2023-02-23T08:04:28.572Z,33.65
2023-02-23T08:06:55.558Z,34.15
2023-02-23T08:09:23.832Z,32.00
2023-02-23T08:11:50.818Z,31.38
2023-02-23T08:14:22.053Z,31.27
2023-02-23T08:16:51.451Z,31.73
2023-02-23T08:19:18.936Z,27.77
2023-02-23T08:21:46.446Z,30.05
2023-02-23T08:24:14.456Z,28.55
2023-02-23T08:26:41.563Z,28.65
2023-02-23T08:29:08.836Z,27.13
2023-02-23T08:31:36.967Z,29.15
2023-02-23T08:34:04.060Z,28.75
2023-02-23T08:36:31.113Z,28.77
2023-02-23T08:38:58.178Z,26.17
2023-02-23T08:41:27.724Z,27.67
2023-02-23T08:43:54.893Z,28.00
2023-02-23T08:46:22.373Z,28.10
2023-02-23T08:48:50.532Z,26.80
2023-02-23T08:51:17.738Z,27.48
2023-02-23T08:53:45.522Z,28.48
2023-02-23T08:56:13.379Z,26.63
2023-02-23T08:58:40.455Z,24.98
2023-02-23T09:01:07.497Z,25.13
2023-02-23T09:03:37.750Z,24.42
2023-02-23T09:06:10.754Z,24.27
2023-02-23T09:08:38.533Z,23.20
2023-02-23T09:11:06.624Z,23.02
2023-02-23T09:13:33.908Z,22.13
2023-02-23T09:16:01.004Z,21.92
2023-02-23T09:18:29.655Z,20.92
2023-02-23T09:20:57.022Z,20.73
2023-02-23T09:23:24.336Z,20.38
2023-02-23T09:25:51.568Z,18.13
2023-02-23T09:28:20.304Z,19.33
2023-02-23T09:30:47.532Z,20.50
2023-02-23T09:33:14.948Z,18.88
2023-02-23T09:35:48.147Z,18.52
2023-02-23T09:38:19.080Z,18.23
2023-02-23T09:40:54.372Z,17.30
2023-02-23T09:43:39.598Z,16.92
2023-02-23T09:46:29.697Z,17.55
2023-02-23T09:49:01.024Z,16.77
2023-02-23T09:51:29.795Z,17.27
2023-02-23T09:54:03.273Z,16.20
2023-02-23T09:56:38.491Z,15.45
2023-02-23T09:59:09.170Z,14.60
2023-02-23T10:01:48.821Z,15.20
2023-02-23T10:04:25.031Z,14.40
2023-02-23T10:07:19.771Z,14.45
2023-02-23T10:10:11.964Z,14.73
2023-02-23T10:12:51.308Z,15.00
2023-02-23T10:15:24.701Z,15.20
2023-02-23T10:18:40.616Z,16.25
2023-02-23T10:21:16.518Z,16.58
2023-02-23T10:23:54.538Z,16.02
2023-02-23T10:26:27.785Z,16.08
2023-02-23T10:28:57.799Z,16.25
2023-02-23T10:31:40.300Z,15.90
2023-02-23T10:34:23.540Z,17.17
2023-02-23T10:36:52.810Z,16.55
2023-02-23T10:39:19.881Z,16.83
2023-02-23T10:41:47.291Z,14.10
2023-02-23T10:44:25.231Z,16.50
2023-02-23T10:47:07.442Z,16.23
2023-02-23T10:49:55.979Z,16.13
2023-02-23T10:52:34.664Z,14.82
2023-02-23T10:55:06.374Z,14.55
2023-02-23T10:57:39.941Z,14.25
2023-02-23T11:00:32.802Z,14.40
2023-02-23T11:03:01.925Z,13.45
2023-02-23T11:05:37.240Z,13.82
2023-02-23T11:10:38.090Z,11.77
2023-02-23T11:13:04.939Z,12.00
2023-02-23T11:15:49.946Z,12.18
2023-02-23T11:20:51.279Z,11.98
2023-02-23T11:23:20.942Z,11.65
2023-02-23T11:25:49.560Z,11.65
2023-02-23T11:28:34.187Z,10.88
2023-02-23T11:31:22.626Z,10.80
2023-02-23T11:33:50.786Z,9.30
2023-02-23T11:36:20.381Z,8.15
2023-02-23T11:38:48.005Z,8.55
2023-02-23T11:41:24.681Z,8.10
2023-02-23T11:43:56.840Z,8.68
2023-02-23T11:46:25.848Z,8.23
2023-02-23T11:49:04.772Z,8.20
2023-02-23T11:51:37.558Z,9.32
2023-02-23T11:54:07.135Z,10.02
2023-02-23T11:56:35.976Z,8.20
2023-02-23T11:59:15.657Z,8.05
2023-02-23T12:01:47.637Z,8.35
2023-02-23T12:04:31.205Z,7.53
2023-02-23T12:07:27.236Z,6.55
2023-02-23T12:10:19.369Z,5.97
2023-02-23T12:12:52.612Z,6.43
2023-02-23T12:15:51.982Z,6.50
2023-02-23T12:18:29.541Z,6.13
2023-02-23T12:21:01.074Z,6.30
2023-02-23T12:23:33.499Z,6.10
2023-02-23T12:26:08.572Z,5.97
2023-02-23T12:28:50.592Z,6.13
2023-02-23T12:31:43.042Z,5.50
2023-02-23T12:34:22.924Z,5.75
2023-02-23T12:37:00.207Z,6.05
2023-02-23T12:39:30.835Z,5.63
2023-02-23T12:42:01.574Z,5.32
2023-02-23T12:44:46.852Z,5.18
2023-02-23T12:47:23.167Z,5.53
2023-02-23T12:50:07.551Z,5.65
2023-02-23T12:52:38.870Z,5.45
2023-02-23T12:55:12.205Z,5.18
2023-02-23T12:57:48.757Z,4.43
2023-02-23T13:00:42.828Z,4.22
2023-02-23T13:03:28.078Z,5.50
2023-02-23T13:06:18.087Z,5.05
2023-02-23T13:09:06.963Z,4.45
2023-02-23T13:12:00.274Z,4.95
2023-02-23T13:14:59.600Z,5.03
2023-02-23T13:17:40.808Z,5.10
2023-02-23T13:20:14.021Z,5.95
2023-02-23T13:22:55.179Z,5.93
2023-02-23T13:25:38.444Z,5.97
2023-02-23T13:28:14.029Z,6.55
2023-02-23T13:30:47.192Z,7.95
2023-02-23T13:33:44.273Z,7.38
2023-02-23T13:36:13.173Z,8.05
2023-02-23T13:39:18.544Z,9.48
2023-02-23T13:42:13.997Z,8.07
2023-02-23T13:45:16.366Z,7.78
2023-02-23T13:47:53.650Z,8.68
2023-02-23T13:50:48.377Z,8.63
2023-02-23T13:53:43.935Z,8.38
2023-02-23T13:56:15.329Z,8.63
2023-02-23T13:58:58.307Z,8.80
2023-02-23T14:01:36.392Z,8.65
2023-02-23T14:04:13.521Z,9.18
2023-02-23T14:06:51.155Z,8.60
2023-02-23T14:09:26.775Z,8.68
2023-02-23T14:12:05.137Z,8.90
2023-02-23T14:14:32.651Z,8.50
2023-02-23T14:17:14.852Z,9.40
2023-02-23T14:19:44.738Z,9.00
2023-02-23T14:22:22.198Z,8.98
2023-02-23T14:25:27.246Z,8.35
2023-02-23T14:28:06.946Z,8.75
2023-02-23T14:30:51.173Z,7.90
2023-02-23T14:33:41.650Z,8.38
2023-02-23T14:36:24.130Z,7.80
2023-02-23T14:38:54.636Z,7.53
2023-02-23T14:41:45.727Z,8.68
2023-02-23T14:44:28.947Z,9.30
2023-02-23T14:47:12.081Z,8.88
2023-02-23T14:49:45.815Z,8.60
2023-02-23T14:52:24.945Z,9.52
2023-02-23T14:54:52.896Z,7.82
2023-02-23T14:57:25.734Z,8.02
2023-02-23T14:59:57.766Z,7.97
2023-02-23T15:02:27.169Z,8.50
2023-02-23T15:04:54.840Z,8.45
2023-02-23T15:07:45.803Z,8.10
2023-02-23T15:10:27.136Z,7.13
2023-02-23T15:12:54.408Z,6.70
2023-02-23T15:15:24.691Z,6.15
2023-02-23T15:17:55.491Z,6.03
2023-02-23T15:20:28.940Z,6.22
2023-02-23T15:22:58.031Z,5.72
2023-02-23T15:25:33.725Z,5.60
2023-02-23T15:28:12.309Z,5.57
2023-02-23T15:30:46.720Z,4.80
2023-02-23T15:33:15.615Z,3.75
2023-02-23T15:35:50.870Z,3.38
2023-02-23T15:41:28.715Z,2.55
2023-02-23T15:44:16.348Z,3.20
2023-02-23T15:46:45.821Z,3.15
2023-02-23T15:49:17.414Z,3.47
2023-02-23T15:51:49.672Z,4.07
2023-02-23T15:54:44.404Z,3.40
2023-02-23T15:57:51.979Z,4.38
2023-02-23T16:00:40.081Z,5.00
2023-02-23T16:03:09.076Z,3.65
2023-02-23T16:05:46.635Z,3.50
2023-02-23T16:08:27.189Z,3.58
2023-02-23T16:11:13.729Z,3.22
2023-02-23T16:13:47.719Z,3.20
2023-02-23T16:16:25.859Z,2.63
2023-02-23T16:19:01.456Z,3.58
2023-02-23T16:21:35.372Z,2.97
2023-02-23T16:24:12.898Z,2.75
2023-02-23T16:26:56.353Z,2.50
2023-02-23T16:29:41.715Z,3.53
2023-02-23T16:32:18.514Z,2.75
2023-02-23T16:35:00.052Z,3.10
2023-02-23T16:37:28.303Z,3.20
2023-02-23T16:39:56.440Z,3.78
2023-02-23T16:42:26.385Z,3.63
2023-02-23T16:44:53.536Z,4.35
2023-02-23T16:47:23.725Z,4.97
2023-02-23T16:49:53.773Z,5.15
2023-02-23T16:52:23.882Z,4.78
2023-02-23T16:54:55.354Z,4.57
2023-02-23T16:57:30.810Z,4.32
2023-02-23T16:59:58.780Z,4.10
2023-02-23T17:02:26.206Z,4.90
2023-02-23T17:04:59.199Z,5.25
2023-02-23T17:07:26.262Z,4.38
2023-02-23T17:09:53.328Z,4.97
2023-02-23T17:12:22.037Z,3.85
2023-02-23T17:14:49.701Z,5.07
2023-02-23T17:17:19.761Z,5.65
2023-02-23T17:19:46.920Z,4.50
2023-02-23T17:22:14.725Z,4.95
2023-02-23T17:24:43.212Z,5.25
2023-02-23T17:27:10.311Z,5.78
2023-02-23T17:29:37.374Z,5.47
2023-02-23T17:32:04.636Z,5.22
2023-02-23T17:34:32.484Z,5.75
2023-02-23T17:36:59.678Z,5.22
2023-02-23T17:39:28.169Z,5.53
2023-02-23T17:41:56.130Z,5.07
2023-02-23T17:44:23.401Z,5.85
2023-02-23T17:46:50.817Z,5.55
2023-02-23T17:49:18.112Z,5.30
2023-02-23T17:51:47.653Z,6.45
2023-02-23T17:54:14.643Z,6.60
2023-02-23T17:56:41.669Z,6.57
2023-02-23T17:59:08.772Z,7.18
2023-02-23T18:01:35.926Z,6.88
2023-02-23T18:04:03.160Z,7.38
2023-02-23T18:06:30.748Z,6.20
2023-02-23T18:08:58.044Z,5.85
2023-02-23T18:11:25.231Z,6.07
2023-02-23T18:13:53.657Z,4.93
2023-02-23T18:16:21.802Z,5.72
2023-02-23T18:18:49.447Z,5.40
2023-02-23T18:21:20.420Z,6.05
2023-02-23T18:23:48.908Z,5.60
2023-02-23T18:26:19.700Z,7.13
2023-02-23T18:28:47.430Z,6.35
2023-02-23T18:31:17.022Z,6.35
2023-02-23T18:33:45.232Z,6.03
2023-02-23T18:36:21.076Z,7.65
2023-02-23T18:38:48.609Z,7.97
2023-02-23T18:41:16.568Z,7.95
2023-02-23T18:43:43.613Z,6.78
2023-02-23T18:46:12.563Z,6.97
2023-02-23T18:48:40.934Z,8.40
2023-02-23T18:51:12.457Z,6.45
2023-02-23T18:53:39.920Z,7.18
2023-02-23T18:56:09.551Z,6.20
2023-02-23T18:58:36.774Z,7.05
2023-02-23T19:01:11.770Z,5.25
2023-02-23T19:03:39.188Z,5.18
2023-02-23T19:06:12.382Z,4.50
2023-02-23T19:08:39.465Z,4.80
2023-02-23T19:11:06.573Z,6.60
2023-02-23T19:13:33.886Z,8.00
2023-02-23T19:16:04.962Z,6.32
2023-02-23T19:18:32.095Z,5.68
2023-02-23T19:20:59.451Z,5.82
2023-02-23T19:23:26.546Z,5.97
2023-02-23T19:25:53.703Z,5.03
2023-02-23T19:28:22.352Z,5.20
2023-02-23T19:30:49.519Z,4.90
2023-02-23T19:33:16.966Z,5.15
2023-02-23T19:35:44.984Z,5.13
2023-02-23T19:38:12.336Z,5.45
2023-02-23T19:40:43.455Z,6.13
2023-02-23T19:43:12.858Z,3.65
2023-02-23T19:45:46.669Z,4.80
2023-02-23T19:48:16.765Z,4.75
2023-02-23T19:50:49.945Z,4.60
2023-02-23T19:53:17.250Z,4.25
2023-02-23T19:55:45.578Z,4.35
2023-02-23T19:58:13.112Z,5.13
2023-02-23T20:00:40.669Z,3.55
2023-02-23T20:03:07.633Z,5.10
2023-02-23T20:05:42.905Z,3.88
2023-02-23T20:08:10.714Z,3.72
2023-02-23T20:10:42.716Z,3.92
2023-02-23T20:13:10.832Z,3.35
2023-02-23T20:15:38.079Z,3.42
2023-02-23T20:18:07.437Z,5.53
2023-02-23T20:20:35.901Z,3.67
2023-02-23T20:23:07.869Z,9.75
2023-02-23T20:25:35.970Z,4.18
2023-02-23T20:28:03.821Z,4.78
2023-02-23T20:30:30.965Z,2.85
2023-02-23T20:32:58.330Z,3.08
2023-02-23T20:35:26.377Z,3.20
2023-02-23T20:37:53.702Z,4.13
2023-02-23T20:40:23.072Z,3.80
2023-02-23T20:42:51.647Z,3.20
2023-02-23T20:45:22.264Z,4.13
2023-02-23T20:47:53.644Z,3.72
2023-02-23T20:50:28.936Z,3.50
2023-02-23T20:52:56.328Z,5.53
2023-02-23T20:55:27.098Z,4.85
2023-02-23T20:57:55.527Z,4.32
2023-02-23T21:00:24.308Z,3.58
2023-02-23T21:02:55.858Z,3.30
2023-02-23T21:05:28.430Z,3.08
2023-02-23T21:08:03.106Z,4.45
2023-02-23T21:10:32.615Z,2.65
2023-02-23T21:13:00.054Z,2.33
2023-02-23T21:15:29.461Z,3.25
2023-02-23T21:17:58.233Z,3.88
2023-02-23T21:20:27.528Z,2.92
2023-02-23T21:22:55.616Z,2.80
2023-02-23T21:25:25.879Z,3.03
2023-02-23T21:27:54.501Z,3.08
2023-02-23T21:30:24.268Z,3.60
2023-02-23T21:32:53.166Z,3.10
2023-02-23T21:35:20.712Z,3.65
2023-02-23T21:37:48.357Z,3.45
2023-02-23T21:40:20.763Z,3.75
2023-02-23T21:42:48.730Z,3.28
2023-02-23T21:45:16.554Z,2.25
2023-02-23T21:47:45.357Z,2.70
2023-02-23T21:50:15.714Z,3.47
2023-02-23T21:52:43.812Z,3.15
2023-02-23T21:55:23.427Z,3.15
2023-02-23T21:57:51.963Z,3.47
2023-02-23T22:00:21.850Z,3.22
2023-02-23T22:02:50.160Z,2.88
2023-02-23T22:05:18.878Z,2.80
2023-02-23T22:07:52.196Z,1.92
2023-02-23T22:10:21.511Z,3.10
2023-02-23T22:12:50.488Z,2.70
2023-02-23T22:15:17.564Z,2.83
2023-02-23T22:17:44.596Z,2.90
2023-02-23T22:20:12.485Z,2.88
2023-02-23T22:22:39.617Z,2.40
2023-02-23T22:25:08.149Z,2.30
2023-02-23T22:27:36.708Z,2.42
2023-02-23T22:30:05.162Z,2.20
2023-02-23T22:32:33.161Z,3.05
2023-02-23T22:35:01.051Z,2.00
2023-02-23T22:37:31.752Z,2.00
2023-02-23T22:40:08.258Z,2.35
2023-02-23T22:42:35.711Z,1.80
2023-02-23T22:45:06.300Z,2.58
2023-02-23T22:47:36.365Z,2.25
2023-02-23T22:50:06.567Z,2.75
2023-02-23T22:52:35.085Z,2.08
2023-02-23T22:55:03.913Z,2.05
2023-02-23T22:57:31.243Z,3.15
2023-02-23T23:00:05.450Z,2.03
2023-02-23T23:02:32.816Z,2.58
2023-02-23T23:05:01.959Z,2.35
2023-02-23T23:07:31.216Z,2.15
2023-02-23T23:09:58.964Z,2.50
2023-02-23T23:12:28.014Z,2.80
2023-02-23T23:15:01.478Z,1.98
2023-02-23T23:17:29.839Z,2.55
2023-02-23T23:19:57.743Z,2.65
2023-02-23T23:22:25.507Z,2.63
2023-02-23T23:24:53.393Z,2.90
2023-02-23T23:27:21.627Z,3.03
2023-02-23T23:29:49.098Z,3.65
2023-02-23T23:32:18.459Z,2.78
2023-02-23T23:34:48.526Z,3.13
2023-02-23T23:37:19.893Z,2.88
2023-02-23T23:39:46.959Z,2.90
2023-02-23T23:42:13.894Z,2.50
2023-02-23T23:44:42.578Z,2.42
2023-02-23T23:47:11.413Z,3.50
2023-02-23T23:49:38.725Z,2.75
2023-02-23T23:52:07.109Z,2.63
2023-02-23T23:54:39.465Z,2.70
2023-02-23T23:57:07.752Z,2.42
2023-02-23T23:59:35.233Z,3.03
